Time,TemperatureF,DewpointF,PressureIn,WindDirection,WindDirectionDegrees,WindSpeedMPH,WindSpeedGustMPH,Humidity,HourlyPrecipIn,Conditions,Clouds,dailyrainin,SoftwareType,DateUTC
2013-03-16 00:02:00,30.9,26.3,29.62,NNW,333,3.0,4.6,83,0.00,RA,SKC,0.00,WeatherDisplay:10.37,2013-03-16 05:02:00,
2013-03-16 00:07:00,30.8,26.2,29.62,NNW,338,3.4,6.9,83,0.00,RA,SKC,0.00,WeatherDisplay:10.37,2013-03-16 05:07:00,
2013-03-16 00:12:00,30.7,26.1,29.61,North,355,3.7,5.0,83,0.00,OVC,SKC,0.00,WeatherDisplay:10.37,2013-03-16 05:12:00,
2013-03-16 00:17:00,30.6,26.1,29.62,NNW,344,4.4,6.0,83,0.00,OVC,SKC,0.00,WeatherDisplay:10.37,2013-03-16 05:17:00,
2013-03-16 00:22:00,30.6,26.1,29.62,NNW,344,4.0,6.0,83,0.00,OVC,SKC,0.00,WeatherDisplay:10.37,2013-03-16 05:22:00,
2013-03-16 00:27:00,30.6,26.1,29.62,North,355,2.8,4.6,83,0.00,OVC,SKC,0.00,WeatherDisplay:10.37,2013-03-16 05:27:00,
2013-03-16 00:32:00,30.5,26.0,29.62,North,355,3.7,5.8,83,0.00,OVC,SKC,0.00,WeatherDisplay:10.37,2013-03-16 05:32:00,
2013-03-16 00:37:00,30.5,26.0,29.62,NNW,348,3.5,8.0,83,0.00,OVC,SKC,0.00,WeatherDisplay:10.37,2013-03-16 05:37:00,
2013-03-16 00:42:00,30.4,25.9,29.62,North,350,3.8,7.0,83,0.00,OVC,SKC,0.00,WeatherDisplay:10.37,2013-03-16 05:42:00,
2013-03-16 00:47:00,30.3,25.8,29.63,North,350,2.5,4.0,83,0.00,OVC,SKC,0.00,WeatherDisplay:10.37,2013-03-16 05:47:00,
2013-03-16 00:52:00,30.2,25.7,29.63,NNW,340,5.2,9.2,83,0.00,OVC,SKC,0.00,WeatherDisplay:10.37,2013-03-16 05:52:00,
2013-03-16 00:58:00,30.0,25.5,29.62,NNW,346,3.1,6.9,83,0.00,OVC,SKC,0.00,WeatherDisplay:10.37,2013-03-16 05:58:00,
2013-03-16 01:03:00,29.9,25.4,29.62,North,355,3.5,6.0,83,0.00,OVC,SKC,0.00,WeatherDisplay:10.37,2013-03-16 06:03:00,
2013-03-16 01:08:00,29.8,25.3,29.62,NNW,329,2.1,6.9,83,0.00,OVC,SKC,0.00,WeatherDisplay:10.37,2013-03-16 06:08:00,
2013-03-16 01:13:00,29.7,25.2,29.62,North,351,3.0,7.0,83,0.00,OVC,SKC,0.00,WeatherDisplay:10.37,2013-03-16 06:13:00,
2013-03-16 01:18:00,29.5,25.0,29.62,North,351,3.0,6.9,83,0.00,OVC,SKC,0.00,WeatherDisplay:10.37,2013-03-16 06:18:00,
2013-03-16 01:23:00,29.4,24.9,29.63,NW,325,3.2,5.8,83,0.00,OVC,SKC,0.00,WeatherDisplay:10.37,2013-03-16 06:23:00,
2013-03-16 01:28:00,29.3,24.8,29.63,NNW,341,2.7,11.5,83,0.00,OVC,SKC,0.00,WeatherDisplay:10.37,2013-03-16 06:28:00,
2013-03-16 01:33:00,29.3,24.8,29.63,NNW,348,2.9,5.0,83,0.00,OVC,SKC,0.00,WeatherDisplay:10.37,2013-03-16 06:33:00,
2013-03-16 01:38:00,29.2,24.7,29.63,North,355,4.6,8.1,83,0.00,OVC,SKC,0.00,WeatherDisplay:10.37,2013-03-16 06:38:00,
2013-03-16 01:43:00,29.2,24.4,29.64,NNW,342,4.1,8.1,82,0.00,OVC,SKC,0.00,WeatherDisplay:10.37,2013-03-16 06:43:00,
2013-03-16 01:48:00,29.1,24.3,29.64,NNW,331,3.0,4.6,82,0.00,OVC,SKC,0.00,WeatherDisplay:10.37,2013-03-16 06:48:00,
2013-03-16 01:53:00,29.1,24.6,29.64,NNW,344,4.0,8.1,83,0.00,OVC,SKC,0.00,WeatherDisplay:10.37,2013-03-16 06:53:00,
2013-03-16 01:58:00,29.0,24.5,29.64,NNW,340,3.8,9.2,83,0.00,OVC,SKC,0.00,WeatherDisplay:10.37,2013-03-16 06:58:00,
2013-03-16 02:03:00,28.8,24.0,29.64,NNW,338,3.7,5.8,82,0.00,OVC,SKC,0.00,WeatherDisplay:10.37,2013-03-16 07:03:00,
2013-03-16 02:08:00,28.6,23.8,29.65,North,355,3.8,5.0,82,0.00,OVC,SKC,0.00,WeatherDisplay:10.37,2013-03-16 07:08:00,
2013-03-16 02:13:00,28.5,23.7,29.65,NNW,344,2.4,8.1,82,0.00,OVC,SKC,0.00,WeatherDisplay:10.37,2013-03-16 07:13:00,
2013-03-16 02:18:00,28.4,23.6,29.65,NNW,348,2.7,10.4,82,0.00,OVC,SKC,0.00,WeatherDisplay:10.37,2013-03-16 07:18:00,
2013-03-16 02:23:00,28.3,23.5,29.65,NNW,341,2.8,4.6,82,0.00,OVC,SKC,0.00,WeatherDisplay:10.37,2013-03-16 07:23:00,
2013-03-16 02:28:00,28.2,23.4,29.65,NNW,336,3.3,5.0,82,0.00,OVC,SKC,0.00,WeatherDisplay:10.37,2013-03-16 07:28:00,
2013-03-16 02:33:00,28.1,23.3,29.66,NW,312,4.6,7.0,82,0.00,OVC,SKC,0.00,WeatherDisplay:10.37,2013-03-16 07:33:00,
2013-03-16 02:38:00,28.0,23.2,29.66,NNW,342,3.6,7.0,82,0.00,OVC,SKC,0.00,WeatherDisplay:10.37,2013-03-16 07:38:00,
2013-03-16 02:43:00,27.9,23.1,29.66,North,351,3.8,6.0,82,0.00,OVC,SKC,0.00,WeatherDisplay:10.37,2013-03-16 07:43:00,
2013-03-16 02:48:00,27.8,23.0,29.66,North,355,4.9,8.1,82,0.00,OVC,SKC,0.00,WeatherDisplay:10.37,2013-03-16 07:48:00,
2013-03-16 02:53:00,27.6,22.8,29.66,North,355,3.3,8.0,82,0.00,OVC,SKC,0.00,WeatherDisplay:10.37,2013-03-16 07:53:00,
2013-03-16 02:58:00,27.5,22.7,29.65,NNW,336,3.8,9.2,82,0.00,OVC,SKC,0.00,WeatherDisplay:10.37,2013-03-16 07:58:00,
2013-03-16 03:03:00,27.4,22.6,29.65,NNW,330,3.1,6.9,82,0.00,OVC,SKC,0.00,WeatherDisplay:10.37,2013-03-16 08:03:00,
2013-03-16 03:08:00,27.2,22.4,29.65,NNW,338,3.4,7.0,82,0.00,OVC,SKC,0.00,WeatherDisplay:10.37,2013-03-16 08:08:00,
2013-03-16 03:13:00,27.2,22.4,29.66,NNW,330,2.5,4.6,82,0.00,OVC,SKC,0.00,WeatherDisplay:10.37,2013-03-16 08:13:00,
2013-03-16 03:18:00,27.0,22.2,29.66,NNW,346,2.3,4.6,82,0.00,OVC,SKC,0.00,WeatherDisplay:10.37,2013-03-16 08:18:00,
2013-03-16 03:23:00,26.9,22.1,29.67,NNW,348,3.3,6.9,82,0.00,OVC,SKC,0.00,WeatherDisplay:10.37,2013-03-16 08:23:00,
2013-03-16 03:28:00,26.6,21.8,29.67,NNW,344,4.8,11.5,82,0.00,OVC,SKC,0.00,WeatherDisplay:10.37,2013-03-16 08:28:00,
2013-03-16 03:33:00,26.5,21.7,29.67,NNW,336,5.1,8.1,82,0.00,OVC,SKC,0.00,WeatherDisplay:10.37,2013-03-16 08:33:00,
2013-03-16 03:38:00,26.3,21.6,29.67,NNW,345,3.2,5.0,82,0.00,OVC,SKC,0.00,WeatherDisplay:10.37,2013-03-16 08:38:00,
2013-03-16 03:43:00,26.3,21.6,29.67,NNW,338,2.6,5.8,82,0.00,OVC,SKC,0.00,WeatherDisplay:10.37,2013-03-16 08:43:00,
2013-03-16 03:48:00,26.3,21.6,29.67,North,350,2.7,4.6,82,0.00,OVC,SKC,0.00,WeatherDisplay:10.37,2013-03-16 08:48:00,
2013-03-16 03:53:00,26.3,21.6,29.68,NNW,329,2.8,5.0,82,0.00,OVC,SKC,0.00,WeatherDisplay:10.37,2013-03-16 08:53:00,
2013-03-16 03:58:00,26.3,21.6,29.68,NW,315,4.6,10.0,82,0.00,OVC,SKC,0.00,WeatherDisplay:10.37,2013-03-16 08:58:00,
2013-03-16 04:03:00,26.3,21.6,29.68,NW,313,3.6,6.0,82,0.00,OVC,SKC,0.00,WeatherDisplay:10.37,2013-03-16 09:03:00,
2013-03-16 04:08:00,26.3,21.6,29.68,NNW,335,4.1,6.0,82,0.00,OVC,SKC,0.00,WeatherDisplay:10.37,2013-03-16 09:08:00,
2013-03-16 04:13:00,26.2,21.5,29.68,NW,320,3.2,5.0,82,0.00,OVC,SKC,0.00,WeatherDisplay:10.37,2013-03-16 09:13:00,
2013-03-16 04:18:00,26.0,21.3,29.69,NW,312,3.9,6.0,82,0.00,OVC,SKC,0.00,WeatherDisplay:10.37,2013-03-16 09:18:00,
2013-03-16 04:23:00,25.8,21.1,29.69,NW,318,4.2,6.9,82,0.00,OVC,SKC,0.00,WeatherDisplay:10.37,2013-03-16 09:23:00,
2013-03-16 04:28:00,25.7,21.0,29.70,NW,322,4.4,6.9,82,0.00,OVC,SKC,0.00,WeatherDisplay:10.37,2013-03-16 09:28:00,
2013-03-16 04:33:00,25.5,20.8,29.70,NW,320,4.1,5.8,82,0.00,OVC,SKC,0.00,WeatherDisplay:10.37,2013-03-16 09:33:00,
2013-03-16 04:38:00,25.4,20.7,29.70,NW,308,3.2,5.0,82,0.00,OVC,SKC,0.00,WeatherDisplay:10.37,2013-03-16 09:38:00,
2013-03-16 04:43:00,25.3,20.6,29.70,WNW,302,4.1,7.0,82,0.00,OVC,SKC,0.00,WeatherDisplay:10.37,2013-03-16 09:43:00,
2013-03-16 04:48:00,25.2,20.5,29.70,NNW,329,4.3,7.0,82,0.00,OVC,SKC,0.00,WeatherDisplay:10.37,2013-03-16 09:48:00,
2013-03-16 04:53:00,25.2,20.5,29.70,NW,325,4.0,7.0,82,0.00,OVC,SKC,0.00,WeatherDisplay:10.37,2013-03-16 09:53:00,
2013-03-16 04:58:00,25.2,20.5,29.70,NW,311,4.3,6.0,82,0.00,OVC,SKC,0.00,WeatherDisplay:10.37,2013-03-16 09:58:00,
2013-03-16 05:03:00,25.0,20.3,29.71,NW,317,3.1,6.9,82,0.00,OVC,SKC,0.00,WeatherDisplay:10.37,2013-03-16 10:03:00,
2013-03-16 05:08:00,24.9,20.2,29.71,NNW,329,4.5,7.0,82,0.00,OVC,SKC,0.00,WeatherDisplay:10.37,2013-03-16 10:08:00,
2013-03-16 05:13:00,24.7,20.0,29.71,NW,313,4.4,6.9,82,0.00,OVC,SKC,0.00,WeatherDisplay:10.37,2013-03-16 10:13:00,
2013-03-16 05:18:00,24.6,19.9,29.72,NW,321,5.5,8.1,82,0.00,OVC,SKC,0.00,WeatherDisplay:10.37,2013-03-16 10:18:00,
2013-03-16 05:23:00,24.5,19.8,29.72,NW,322,3.6,5.0,82,0.00,OVC,SKC,0.00,WeatherDisplay:10.37,2013-03-16 10:23:00,
2013-03-16 05:28:00,24.4,19.7,29.72,NW,321,4.2,6.0,82,0.00,OVC,SKC,0.00,WeatherDisplay:10.37,2013-03-16 10:28:00,
2013-03-16 05:33:00,24.5,19.8,29.72,NW,311,5.2,8.1,82,0.00,OVC,SKC,0.00,WeatherDisplay:10.37,2013-03-16 10:33:00,
2013-03-16 05:38:00,24.5,19.8,29.72,NW,320,5.9,8.1,82,0.00,OVC,SKC,0.00,WeatherDisplay:10.37,2013-03-16 10:38:00,
2013-03-16 05:43:00,24.5,19.8,29.73,NW,323,3.6,5.8,82,0.00,OVC,SKC,0.00,WeatherDisplay:10.37,2013-03-16 10:43:00,
2013-03-16 05:48:00,24.5,19.8,29.73,NW,310,4.0,8.1,82,0.00,OVC,SKC,0.00,WeatherDisplay:10.37,2013-03-16 10:48:00,
2013-03-16 05:53:00,24.3,19.6,29.74,WNW,290,4.5,6.0,82,0.00,OVC,SKC,0.00,WeatherDisplay:10.37,2013-03-16 10:53:00,
2013-03-16 05:58:00,24.3,19.6,29.75,WNW,297,5.2,8.1,82,0.00,OVC,SKC,0.00,WeatherDisplay:10.37,2013-03-16 10:58:00,
2013-03-16 06:03:00,24.1,19.4,29.75,NNW,331,5.1,10.4,82,0.00,OVC,SKC,0.00,WeatherDisplay:10.37,2013-03-16 11:03:00,
2013-03-16 06:08:00,24.0,19.3,29.75,NW,304,5.0,7.0,82,0.00,OVC,SKC,0.00,WeatherDisplay:10.37,2013-03-16 11:08:00,
2013-03-16 06:13:00,24.0,19.3,29.75,NW,317,4.1,6.0,82,0.00,OVC,SKC,0.00,WeatherDisplay:10.37,2013-03-16 11:13:00,
2013-03-16 06:18:00,23.9,19.2,29.76,WNW,302,5.1,8.1,82,0.00,OVC,SKC,0.00,WeatherDisplay:10.37,2013-03-16 11:18:00,
2013-03-16 06:23:00,23.8,19.1,29.76,NNW,340,4.9,7.0,82,0.00,OVC,SKC,0.00,WeatherDisplay:10.37,2013-03-16 11:23:00,
2013-03-16 06:28:00,23.7,19.0,29.76,NW,325,3.5,6.9,82,0.00,OVC,SKC,0.00,WeatherDisplay:10.37,2013-03-16 11:28:00,
2013-03-16 06:33:00,23.5,18.8,29.76,NNW,340,5.1,6.9,82,0.00,OVC,SKC,0.00,WeatherDisplay:10.37,2013-03-16 11:33:00,
2013-03-16 06:38:00,23.4,18.7,29.77,NW,321,5.0,9.2,82,0.00,OVC,SKC,0.00,WeatherDisplay:10.37,2013-03-16 11:38:00,
2013-03-16 06:43:00,23.4,18.7,29.77,NW,322,5.1,8.1,82,0.00,OVC,SKC,0.00,WeatherDisplay:10.37,2013-03-16 11:43:00,
2013-03-16 06:48:00,23.2,18.5,29.78,NNW,333,5.7,9.2,82,0.00,OVC,SKC,0.00,WeatherDisplay:10.37,2013-03-16 11:48:00,
2013-03-16 06:53:00,23.0,18.3,29.79,NW,310,5.8,8.1,82,0.00,OVC,SKC,0.00,WeatherDisplay:10.37,2013-03-16 11:53:00,
2013-03-16 06:58:00,22.9,18.2,29.79,NW,310,5.2,8.0,82,0.00,OVC,SKC,0.00,WeatherDisplay:10.37,2013-03-16 11:58:00,
2013-03-16 07:03:00,22.7,18.0,29.79,NW,324,5.8,8.1,82,0.00,OVC,SKC,0.00,WeatherDisplay:10.37,2013-03-16 12:03:00,
2013-03-16 07:08:00,22.5,17.8,29.80,NNW,333,5.3,8.1,82,0.00,OVC,SKC,0.00,WeatherDisplay:10.37,2013-03-16 12:08:00,
2013-03-16 07:13:00,22.4,17.7,29.80,NW,313,4.4,6.9,82,0.00,OVC,SKC,0.00,WeatherDisplay:10.37,2013-03-16 12:13:00,
2013-03-16 07:18:00,22.4,17.7,29.80,NW,317,4.5,8.0,82,0.00,OVC,SKC,0.00,WeatherDisplay:10.37,2013-03-16 12:18:00,
2013-03-16 07:23:00,22.3,17.6,29.81,NW,312,3.9,5.8,82,0.00,OVC,SKC,0.00,WeatherDisplay:10.37,2013-03-16 12:23:00,
2013-03-16 07:28:00,22.3,17.4,29.81,WNW,292,5.0,11.5,81,0.00,OVC,SKC,0.00,WeatherDisplay:10.37,2013-03-16 12:28:00,
2013-03-16 07:33:00,22.3,17.4,29.81,NW,323,4.7,7.0,81,0.00,OVC,SKC,0.00,WeatherDisplay:10.37,2013-03-16 12:33:00,
2013-03-16 07:38:00,22.4,17.2,29.81,NW,308,4.3,9.2,80,0.00,OVC,SKC,0.00,WeatherDisplay:10.37,2013-03-16 12:38:00,
2013-03-16 07:43:00,22.4,17.2,29.82,NW,317,4.2,8.1,80,0.00,OVC,SKC,0.00,WeatherDisplay:10.37,2013-03-16 12:43:00,
2013-03-16 07:48:00,22.4,17.2,29.82,NW,314,4.1,8.1,80,0.00,OVC,SKC,0.00,WeatherDisplay:10.37,2013-03-16 12:48:00,
2013-03-16 07:53:00,22.4,17.2,29.82,NW,318,3.2,5.0,80,0.00,OVC,SKC,0.00,WeatherDisplay:10.37,2013-03-16 12:53:00,
2013-03-16 07:58:00,22.4,17.2,29.83,WNW,291,4.6,9.0,80,0.00,OVC,SKC,0.00,WeatherDisplay:10.37,2013-03-16 12:58:00,
2013-03-16 08:03:00,22.5,17.3,29.83,West,281,5.7,9.2,80,0.00,OVC,SKC,0.00,WeatherDisplay:10.37,2013-03-16 13:03:00,
2013-03-16 08:08:00,22.4,16.9,29.83,WNW,298,5.6,10.4,79,0.00,OVC,SKC,0.00,WeatherDisplay:10.37,2013-03-16 13:08:00,
2013-03-16 08:13:00,22.5,17.0,29.83,WNW,295,5.0,8.1,79,0.00,OVC,SKC,0.00,WeatherDisplay:10.37,2013-03-16 13:13:00,
2013-03-16 08:18:00,22.5,17.0,29.84,WNW,288,6.9,9.2,79,0.00,OVC,SKC,0.00,WeatherDisplay:10.37,2013-03-16 13:18:00,
2013-03-16 08:23:00,22.6,17.1,29.84,WNW,292,7.1,10.0,79,0.00,OVC,SKC,0.00,WeatherDisplay:10.37,2013-03-16 13:23:00,
2013-03-16 08:28:00,22.6,17.1,29.84,NW,308,5.3,8.1,79,0.00,OVC,SKC,0.00,WeatherDisplay:10.37,2013-03-16 13:28:00,
2013-03-16 08:33:00,22.7,17.2,29.85,WNW,302,6.2,10.4,79,0.00,OVC,SKC,0.00,WeatherDisplay:10.37,2013-03-16 13:33:00,
2013-03-16 08:38:00,22.5,16.7,29.85,WNW,296,4.9,9.0,78,0.00,OVC,SKC,0.00,WeatherDisplay:10.37,2013-03-16 13:38:00,
2013-03-16 08:44:00,22.4,16.6,29.85,WNW,303,6.8,12.0,78,0.00,BKN,SKC,0.00,WeatherDisplay:10.37,2013-03-16 13:44:00,
2013-03-16 08:49:00,22.2,16.4,29.85,NW,317,5.0,8.1,78,0.00,BKN,SKC,0.00,WeatherDisplay:10.37,2013-03-16 13:49:00,
2013-03-16 08:54:00,22.3,16.5,29.86,NW,324,5.1,8.0,78,0.00,BKN,SKC,0.00,WeatherDisplay:10.37,2013-03-16 13:54:00,
2013-03-16 08:59:00,22.1,16.3,29.86,NW,308,5.2,7.0,78,0.00,BKN,SKC,0.00,WeatherDisplay:10.37,2013-03-16 13:59:00,
2013-03-16 09:04:00,22.0,16.2,29.86,NNW,329,5.0,9.2,78,0.00,BKN,SKC,0.00,WeatherDisplay:10.37,2013-03-16 14:04:00,
2013-03-16 09:09:00,22.1,16.3,29.87,NW,315,4.4,8.1,78,0.00,BKN,SKC,0.00,WeatherDisplay:10.37,2013-03-16 14:09:00,
2013-03-16 09:14:00,22.1,16.3,29.87,NW,323,4.0,6.0,78,0.00,BKN,SKC,0.00,WeatherDisplay:10.37,2013-03-16 14:14:00,
2013-03-16 09:19:00,22.4,16.6,29.86,NNW,332,5.5,8.0,78,0.00,BKN,SKC,0.00,WeatherDisplay:10.37,2013-03-16 14:19:00,
2013-03-16 09:24:00,22.4,16.3,29.86,NW,316,4.6,8.1,77,0.00,OVC,SKC,0.00,WeatherDisplay:10.37,2013-03-16 14:24:00,
2013-03-16 09:29:00,22.5,16.7,29.87,WNW,300,4.1,6.9,78,0.00,OVC,SKC,0.00,WeatherDisplay:10.37,2013-03-16 14:29:00,
2013-03-16 09:34:00,22.4,16.6,29.87,NW,312,5.3,8.1,78,0.00,OVC,SKC,0.00,WeatherDisplay:10.37,2013-03-16 14:34:00,
2013-03-16 09:39:00,22.4,16.3,29.87,WNW,297,5.7,10.4,77,0.00,OVC,SKC,0.00,WeatherDisplay:10.37,2013-03-16 14:39:00,
2013-03-16 09:44:00,22.5,16.7,29.87,NNW,337,4.4,8.1,78,0.00,OVC,SKC,0.00,WeatherDisplay:10.37,2013-03-16 14:44:00,
2013-03-16 09:49:00,22.6,16.5,29.87,NW,309,5.9,11.5,77,0.00,OVC,SKC,0.00,WeatherDisplay:10.37,2013-03-16 14:49:00,
2013-03-16 09:54:00,22.5,16.4,29.87,WNW,296,4.9,6.0,77,0.00,OVC,SKC,0.00,WeatherDisplay:10.37,2013-03-16 14:54:00,
2013-03-16 09:59:00,22.6,16.5,29.87,WNW,298,6.5,9.2,77,0.00,OVC,SKC,0.00,WeatherDisplay:10.37,2013-03-16 14:59:00,
2013-03-16 10:04:00,22.9,16.8,29.87,NNW,334,4.5,7.0,77,0.00,OVC,SKC,0.00,WeatherDisplay:10.37,2013-03-16 15:04:00,
2013-03-16 10:09:00,23.1,17.0,29.88,NW,319,4.3,6.0,77,0.00,OVC,SKC,0.00,WeatherDisplay:10.37,2013-03-16 15:09:00,
2013-03-16 10:14:00,23.2,17.1,29.87,NW,318,3.0,4.0,77,0.00,OVC,SKC,0.00,WeatherDisplay:10.37,2013-03-16 15:14:00,
2013-03-16 10:19:00,23.0,16.9,29.88,WNW,293,8.2,10.4,77,0.00,OVC,SKC,0.00,WeatherDisplay:10.37,2013-03-16 15:19:00,
2013-03-16 10:24:00,22.6,16.5,29.88,WNW,292,5.0,9.2,77,0.00,OVC,SKC,0.00,WeatherDisplay:10.37,2013-03-16 15:24:00,
2013-03-16 10:29:00,22.9,16.8,29.88,NNW,330,5.9,10.0,77,0.00,OVC,SKC,0.00,WeatherDisplay:10.37,2013-03-16 15:29:00,
2013-03-16 10:34:00,23.4,17.3,29.88,NW,317,5.0,6.9,77,0.00,OVC,SKC,0.00,WeatherDisplay:10.37,2013-03-16 15:34:00,
2013-03-16 10:39:00,23.9,17.7,29.88,NNW,340,3.4,5.0,77,0.00,OVC,SKC,0.00,WeatherDisplay:10.37,2013-03-16 15:39:00,
2013-03-16 10:44:00,24.0,17.5,29.89,WNW,302,6.3,9.2,76,0.00,SCT,SKC,0.00,WeatherDisplay:10.37,2013-03-16 15:44:00,
2013-03-16 10:49:00,23.7,17.2,29.88,NW,313,4.1,6.9,76,0.00,SCT,SKC,0.00,WeatherDisplay:10.37,2013-03-16 15:49:00,
2013-03-16 10:54:00,24.1,17.9,29.88,NW,316,5.3,9.2,77,0.00,SCT,SKC,0.00,WeatherDisplay:10.37,2013-03-16 15:54:00,
2013-03-16 10:59:00,24.1,17.9,29.89,WNW,298,9.6,12.0,77,0.00,SCT,SKC,0.00,WeatherDisplay:10.37,2013-03-16 15:59:00,
2013-03-16 11:04:00,23.3,16.9,29.89,WNW,303,8.0,11.5,76,0.00,SCT,SKC,0.00,WeatherDisplay:10.37,2013-03-16 16:04:00,
2013-03-16 11:09:00,23.3,16.9,29.89,NW,318,3.9,10.4,76,0.00,SCT,SKC,0.00,WeatherDisplay:10.37,2013-03-16 16:09:00,
2013-03-16 11:14:00,23.9,17.7,29.90,WNW,301,4.8,7.0,77,0.00,SCT,SKC,0.00,WeatherDisplay:10.37,2013-03-16 16:14:00,
2013-03-16 11:19:00,24.4,17.9,29.89,WNW,294,5.2,8.1,76,0.00,SCT,SKC,0.00,WeatherDisplay:10.37,2013-03-16 16:19:00,
2013-03-16 11:24:00,24.4,17.9,29.90,WNW,301,10.0,11.5,76,0.00,SCT,SKC,0.00,WeatherDisplay:10.37,2013-03-16 16:24:00,
2013-03-16 11:29:00,23.9,17.4,29.90,West,281,7.3,10.4,76,0.00,SCT,SKC,0.00,WeatherDisplay:10.37,2013-03-16 16:29:00,
2013-03-16 11:34:00,23.9,17.4,29.90,NW,307,7.8,10.4,76,0.00,SCT,SKC,0.00,WeatherDisplay:10.37,2013-03-16 16:34:00,
2013-03-16 11:39:00,24.0,17.8,29.90,WNW,301,7.9,11.5,77,0.00,SCT,SKC,0.00,WeatherDisplay:10.37,2013-03-16 16:39:00,
2013-03-16 11:44:00,24.5,18.0,29.90,NW,324,4.9,7.0,76,0.00,SCT,SKC,0.00,WeatherDisplay:10.37,2013-03-16 16:44:00,
2013-03-16 11:49:00,24.9,18.4,29.90,WNW,296,7.8,10.4,76,0.00,SCT,SKC,0.00,WeatherDisplay:10.37,2013-03-16 16:49:00,
2013-03-16 11:54:00,24.5,18.0,29.90,WNW,301,7.4,10.4,76,0.00,SCT,SKC,0.00,WeatherDisplay:10.37,2013-03-16 16:54:00,
2013-03-16 11:59:00,24.4,17.9,29.91,NW,305,6.9,11.5,76,0.00,SCT,SKC,0.00,WeatherDisplay:10.37,2013-03-16 16:59:00,
2013-03-16 12:04:00,24.8,18.3,29.90,WNW,289,7.3,10.0,76,0.00,SCT,SKC,0.00,WeatherDisplay:10.37,2013-03-16 17:04:00,
2013-03-16 12:09:00,24.5,18.0,29.90,WNW,288,9.6,11.5,76,0.00,SCT,SKC,0.00,WeatherDisplay:10.37,2013-03-16 17:09:00,
2013-03-16 12:14:00,24.5,18.0,29.90,NW,306,6.0,11.5,76,0.00,SCT,SKC,0.00,WeatherDisplay:10.37,2013-03-16 17:14:00,
2013-03-16 12:19:00,24.5,18.0,29.91,WNW,300,6.1,10.4,76,0.00,SCT,SKC,0.00,WeatherDisplay:10.37,2013-03-16 17:19:00,
2013-03-16 12:24:00,24.5,18.0,29.91,NW,323,4.8,11.5,76,0.00,SCT,SKC,0.00,WeatherDisplay:10.37,2013-03-16 17:24:00,
2013-03-16 12:29:00,24.6,18.4,29.91,NW,304,8.1,11.5,77,0.00,SCT,SKC,0.00,WeatherDisplay:10.37,2013-03-16 17:29:00,
2013-03-16 12:34:00,24.8,18.3,29.91,NW,312,8.6,10.4,76,0.00,SCT,SKC,0.00,WeatherDisplay:10.37,2013-03-16 17:34:00,
2013-03-16 12:39:00,24.9,18.7,29.91,WNW,299,9.5,12.7,77,0.00,SCT,SKC,0.00,WeatherDisplay:10.37,2013-03-16 17:39:00,
2013-03-16 12:44:00,24.9,18.4,29.91,NW,315,5.4,9.2,76,0.00,CLR,SKC,0.00,WeatherDisplay:10.37,2013-03-16 17:44:00,
2013-03-16 12:49:00,25.3,18.8,29.91,WNW,284,7.3,11.5,76,0.00,CLR,SKC,0.00,WeatherDisplay:10.37,2013-03-16 17:49:00,
2013-03-16 12:54:00,25.3,19.1,29.91,WNW,287,6.9,10.4,77,0.00,CLR,SKC,0.00,WeatherDisplay:10.37,2013-03-16 17:54:00,
2013-03-16 12:59:00,24.9,18.7,29.91,WNW,288,7.8,11.5,77,0.00,CLR,SKC,0.00,WeatherDisplay:10.37,2013-03-16 17:59:00,
2013-03-16 13:04:00,25.0,18.8,29.91,WNW,290,8.1,12.0,77,0.00,CLR,SKC,0.00,WeatherDisplay:10.37,2013-03-16 18:04:00,
2013-03-16 13:09:00,25.0,18.8,29.91,NW,304,10.8,12.0,77,0.00,CLR,SKC,0.00,WeatherDisplay:10.37,2013-03-16 18:09:00,
2013-03-16 13:14:00,25.1,18.6,29.91,WNW,293,7.6,12.0,76,0.00,CLR,SKC,0.00,WeatherDisplay:10.37,2013-03-16 18:14:00,
2013-03-16 13:19:00,25.0,18.8,29.91,WNW,294,8.9,11.5,77,0.00,CLR,SKC,0.00,WeatherDisplay:10.37,2013-03-16 18:19:00,
2013-03-16 13:24:00,25.1,18.9,29.91,WNW,295,9.3,11.5,77,0.00,CLR,SKC,0.00,WeatherDisplay:10.37,2013-03-16 18:24:00,
2013-03-16 13:29:00,25.1,18.6,29.92,WNW,298,4.6,11.5,76,0.00,CLR,SKC,0.00,WeatherDisplay:10.37,2013-03-16 18:29:00,
2013-03-16 13:34:00,25.6,19.4,29.92,NW,309,6.8,10.4,77,0.00,CLR,SKC,0.00,WeatherDisplay:10.37,2013-03-16 18:34:00,
2013-03-16 13:39:00,25.6,19.1,29.92,NW,324,4.8,9.2,76,0.00,CLR,SKC,0.00,WeatherDisplay:10.37,2013-03-16 18:39:00,
2013-03-16 13:44:00,25.7,19.2,29.91,WNW,300,8.0,11.5,76,0.00,SCT,SKC,0.00,WeatherDisplay:10.37,2013-03-16 18:44:00,
2013-03-16 13:49:00,25.8,19.3,29.92,WNW,302,5.3,8.0,76,0.00,SCT,SKC,0.00,WeatherDisplay:10.37,2013-03-16 18:49:00,
2013-03-16 13:54:00,25.4,18.9,29.92,WNW,298,6.5,11.5,76,0.00,SCT,SKC,0.00,WeatherDisplay:10.37,2013-03-16 18:54:00,
2013-03-16 14:00:00,25.7,19.2,29.91,NW,321,4.8,11.5,76,0.00,SCT,SKC,0.00,WeatherDisplay:10.37,2013-03-16 19:00:00,
2013-03-16 14:05:00,25.7,19.2,29.91,NW,308,8.0,11.5,76,0.00,BKN,SKC,0.00,WeatherDisplay:10.37,2013-03-16 19:05:00,
2013-03-16 14:10:00,26.2,20.0,29.91,North,355,4.5,6.9,77,0.00,BKN,SKC,0.00,WeatherDisplay:10.37,2013-03-16 19:10:00,
2013-03-16 14:15:00,26.1,19.6,29.91,NNW,329,5.1,7.0,76,0.00,BKN,SKC,0.00,WeatherDisplay:10.37,2013-03-16 19:15:00,
2013-03-16 14:20:00,25.8,19.3,29.91,NW,308,8.2,10.4,76,0.00,BKN,SKC,0.00,WeatherDisplay:10.37,2013-03-16 19:20:00,
2013-03-16 14:25:00,25.6,19.4,29.91,WNW,300,6.9,10.4,77,0.00,BKN,SKC,0.00,WeatherDisplay:10.37,2013-03-16 19:25:00,
2013-03-16 14:30:00,25.8,19.3,29.91,NNW,333,4.4,6.0,76,0.00,BKN,SKC,0.00,WeatherDisplay:10.37,2013-03-16 19:30:00,
2013-03-16 14:35:00,26.0,19.8,29.91,NNW,340,4.1,6.9,77,0.00,BKN,SKC,0.00,WeatherDisplay:10.37,2013-03-16 19:35:00,
2013-03-16 14:40:00,26.2,20.0,29.91,NNW,327,4.3,8.1,77,0.00,BKN,SKC,0.00,WeatherDisplay:10.37,2013-03-16 19:40:00,
2013-03-16 14:45:00,26.3,19.8,29.91,WNW,300,6.5,9.2,76,0.00,BKN,SKC,0.00,WeatherDisplay:10.37,2013-03-16 19:45:00,
2013-03-16 14:50:00,26.0,19.5,29.91,West,276,6.5,10.4,76,0.00,BKN,SKC,0.00,WeatherDisplay:10.37,2013-03-16 19:50:00,
2013-03-16 14:55:00,26.1,19.9,29.91,WNW,289,5.3,8.1,77,0.00,BKN,SKC,0.00,WeatherDisplay:10.37,2013-03-16 19:55:00,
2013-03-16 15:00:00,26.2,19.7,29.91,North,350,3.8,5.8,76,0.00,BKN,SKC,0.00,WeatherDisplay:10.37,2013-03-16 20:00:00,
2013-03-16 15:05:00,25.9,19.4,29.90,NW,311,5.2,8.1,76,0.00,OVC,SKC,0.00,WeatherDisplay:10.37,2013-03-16 20:05:00,
2013-03-16 15:10:00,26.0,19.5,29.90,WNW,303,7.4,11.0,76,0.00,OVC,SKC,0.00,WeatherDisplay:10.37,2013-03-16 20:10:00,
2013-03-16 15:15:00,25.7,19.2,29.90,WNW,300,9.8,12.0,76,0.00,OVC,SKC,0.00,WeatherDisplay:10.37,2013-03-16 20:15:00,
2013-03-16 15:20:00,25.3,18.8,29.90,NW,306,8.3,11.5,76,0.00,OVC,SKC,0.00,WeatherDisplay:10.37,2013-03-16 20:20:00,
2013-03-16 15:25:00,25.3,18.8,29.90,WNW,299,4.8,8.1,76,0.00,OVC,SKC,0.00,WeatherDisplay:10.37,2013-03-16 20:25:00,
2013-03-16 15:30:00,25.8,19.3,29.89,WNW,292,7.8,11.5,76,0.00,OVC,SKC,0.00,WeatherDisplay:10.37,2013-03-16 20:30:00,
2013-03-16 15:36:00,25.9,19.4,29.89,WNW,297,10.9,13.8,76,0.00,OVC,SKC,0.00,WeatherDisplay:10.37,2013-03-16 20:36:00,
2013-03-16 15:41:00,25.8,19.3,29.89,NW,319,5.1,10.4,76,0.00,OVC,SKC,0.00,WeatherDisplay:10.37,2013-03-16 20:41:00,
2013-03-16 15:46:00,25.6,19.1,29.89,WNW,301,6.9,9.2,76,0.00,OVC,SKC,0.00,WeatherDisplay:10.37,2013-03-16 20:46:00,
2013-03-16 15:51:00,25.7,19.5,29.89,NW,304,7.6,11.0,77,0.00,OVC,SKC,0.00,WeatherDisplay:10.37,2013-03-16 20:51:00,
2013-03-16 15:57:00,25.2,18.7,29.89,NW,309,9.3,12.0,76,0.00,OVC,SKC,0.00,WeatherDisplay:10.37,2013-03-16 20:57:00,
2013-03-16 16:02:00,25.2,18.7,29.89,NW,321,2.9,6.9,76,0.00,OVC,SKC,0.00,WeatherDisplay:10.37,2013-03-16 21:02:00,
2013-03-16 16:07:00,26.0,19.8,29.89,WNW,303,6.3,9.2,77,0.00,OVC,SKC,0.00,WeatherDisplay:10.37,2013-03-16 21:07:00,
2013-03-16 16:12:00,25.7,19.2,29.89,NNW,335,4.0,9.2,76,0.00,OVC,SKC,0.00,WeatherDisplay:10.37,2013-03-16 21:12:00,
2013-03-16 16:17:00,25.2,18.7,29.88,WNW,294,7.2,10.0,76,0.00,OVC,SKC,0.00,WeatherDisplay:10.37,2013-03-16 21:17:00,
2013-03-16 16:22:00,25.1,18.9,29.88,WNW,292,6.5,9.2,77,0.00,OVC,SKC,0.00,WeatherDisplay:10.37,2013-03-16 21:22:00,
2013-03-16 16:27:00,25.1,18.9,29.89,NW,310,3.7,8.1,77,0.00,OVC,SKC,0.00,WeatherDisplay:10.37,2013-03-16 21:27:00,
2013-03-16 16:32:00,25.1,18.6,29.88,WNW,297,6.2,8.1,76,0.00,OVC,SKC,0.00,WeatherDisplay:10.37,2013-03-16 21:32:00,
2013-03-16 16:37:00,25.0,18.8,29.88,WNW,296,7.0,9.2,77,0.00,OVC,SKC,0.00,WeatherDisplay:10.37,2013-03-16 21:37:00,
2013-03-16 16:42:00,25.3,18.8,29.88,NW,314,3.4,5.8,76,0.00,BKN,SKC,0.00,WeatherDisplay:10.37,2013-03-16 21:42:00,
2013-03-16 16:47:00,25.4,18.9,29.88,NW,306,6.9,8.1,76,0.00,BKN,SKC,0.00,WeatherDisplay:10.37,2013-03-16 21:47:00,
2013-03-16 16:52:00,25.3,18.8,29.88,NW,304,6.5,9.2,76,0.00,BKN,SKC,0.00,WeatherDisplay:10.37,2013-03-16 21:52:00,
2013-03-16 16:58:00,25.6,19.1,29.88,North,360,3.7,8.1,76,0.00,BKN,SKC,0.00,WeatherDisplay:10.37,2013-03-16 21:58:00,
2013-03-16 17:03:00,25.9,19.4,29.88,North,355,2.8,4.6,76,0.00,SCT,SKC,0.00,WeatherDisplay:10.37,2013-03-16 22:03:00,
2013-03-16 17:09:00,25.8,19.3,29.89,NNW,327,3.1,4.6,76,0.00,SCT,SKC,0.00,WeatherDisplay:10.37,2013-03-16 22:09:00,
2013-03-16 17:14:00,25.7,19.2,29.89,NW,319,3.6,9.2,76,0.00,SCT,SKC,0.00,WeatherDisplay:10.37,2013-03-16 22:14:00,
2013-03-16 17:19:00,25.3,18.8,29.90,WNW,291,4.7,7.0,76,0.00,SCT,SKC,0.00,WeatherDisplay:10.37,2013-03-16 22:19:00,
2013-03-16 17:24:00,25.3,19.1,29.90,NW,314,3.4,8.1,77,0.00,SCT,SKC,0.00,WeatherDisplay:10.37,2013-03-16 22:24:00,
2013-03-16 17:29:00,25.4,18.9,29.90,NW,316,3.4,6.0,76,0.00,SCT,SKC,0.00,WeatherDisplay:10.37,2013-03-16 22:29:00,
2013-03-16 17:34:00,25.4,18.9,29.89,NNW,341,2.9,5.0,76,0.00,SCT,SKC,0.00,WeatherDisplay:10.37,2013-03-16 22:34:00,
2013-03-16 17:39:00,25.3,18.8,29.89,NW,326,2.9,6.9,76,0.00,SCT,SKC,0.00,WeatherDisplay:10.37,2013-03-16 22:39:00,
2013-03-16 17:44:00,25.0,18.5,29.90,NW,308,5.8,8.0,76,0.00,SCT,SKC,0.00,WeatherDisplay:10.37,2013-03-16 22:44:00,
2013-03-16 17:49:00,24.7,18.5,29.90,WNW,297,6.1,8.1,77,0.00,SCT,SKC,0.00,WeatherDisplay:10.37,2013-03-16 22:49:00,
2013-03-16 17:54:00,24.5,18.0,29.90,NW,308,3.2,5.8,76,0.00,SCT,SKC,0.00,WeatherDisplay:10.37,2013-03-16 22:54:00,
2013-03-16 17:59:00,24.4,17.9,29.90,WNW,296,4.9,6.0,76,0.00,SCT,SKC,0.00,WeatherDisplay:10.37,2013-03-16 22:59:00,
2013-03-16 18:04:00,24.3,18.1,29.90,WNW,297,5.4,8.0,77,0.00,CLR,SKC,0.00,WeatherDisplay:10.37,2013-03-16 23:04:00,
2013-03-16 18:09:00,24.2,17.7,29.90,WNW,298,4.2,6.9,76,0.00,CLR,SKC,0.00,WeatherDisplay:10.37,2013-03-16 23:09:00,
2013-03-16 18:14:00,24.2,18.0,29.91,WNW,303,6.6,8.1,77,0.00,CLR,SKC,0.00,WeatherDisplay:10.37,2013-03-16 23:14:00,
2013-03-16 18:19:00,24.2,17.7,29.90,NW,306,6.5,8.0,76,0.00,CLR,SKC,0.00,WeatherDisplay:10.37,2013-03-16 23:19:00,
2013-03-16 18:24:00,24.0,17.8,29.91,WNW,292,5.3,7.0,77,0.00,CLR,SKC,0.00,WeatherDisplay:10.37,2013-03-16 23:24:00,
2013-03-16 18:29:00,23.8,17.6,29.91,NW,304,6.6,8.1,77,0.00,CLR,SKC,0.00,WeatherDisplay:10.37,2013-03-16 23:29:00,
2013-03-16 18:34:00,23.8,17.6,29.91,NW,304,4.0,6.9,77,0.00,CLR,SKC,0.00,WeatherDisplay:10.37,2013-03-16 23:34:00,
2013-03-16 18:39:00,23.7,17.5,29.91,WNW,302,5.0,7.0,77,0.00,CLR,SKC,0.00,WeatherDisplay:10.37,2013-03-16 23:39:00,
2013-03-16 18:44:00,23.6,17.4,29.92,NW,304,6.7,8.1,77,0.00,CLR,SKC,0.00,WeatherDisplay:10.37,2013-03-16 23:44:00,
2013-03-16 18:49:00,23.4,16.9,29.92,WNW,300,5.9,10.4,76,0.00,CLR,SKC,0.00,WeatherDisplay:10.37,2013-03-16 23:49:00,
2013-03-16 18:54:00,23.3,16.9,29.92,NW,306,7.8,11.5,76,0.00,CLR,SKC,0.00,WeatherDisplay:10.37,2013-03-16 23:54:00,
2013-03-16 18:59:00,23.0,16.6,29.92,NW,306,5.5,8.0,76,0.00,CLR,SKC,0.00,WeatherDisplay:10.37,2013-03-16 23:59:00,
2013-03-16 19:04:00,22.8,16.4,29.92,WNW,301,5.8,11.5,76,0.00,SCT,SKC,0.00,WeatherDisplay:10.37,2013-03-17 00:04:00,
2013-03-16 19:09:00,22.5,16.1,29.93,NW,306,7.4,10.4,76,0.00,SCT,SKC,0.00,WeatherDisplay:10.37,2013-03-17 00:09:00,
2013-03-16 19:14:00,22.3,15.9,29.93,WNW,293,7.3,10.4,76,0.00,SCT,SKC,0.00,WeatherDisplay:10.37,2013-03-17 00:14:00,
2013-03-16 19:19:00,22.2,15.8,29.93,WNW,303,7.0,9.2,76,0.00,SCT,SKC,0.00,WeatherDisplay:10.37,2013-03-17 00:19:00,
2013-03-16 19:24:00,22.1,15.7,29.93,WNW,302,6.8,8.1,76,0.00,SCT,SKC,0.00,WeatherDisplay:10.37,2013-03-17 00:24:00,
2013-03-16 19:29:00,22.0,15.9,29.93,WNW,297,6.5,10.4,77,0.00,SCT,SKC,0.00,WeatherDisplay:10.37,2013-03-17 00:29:00,
2013-03-16 19:34:00,21.8,15.7,29.93,WNW,302,7.2,10.0,77,0.00,SCT,SKC,0.00,WeatherDisplay:10.37,2013-03-17 00:34:00,
2013-03-16 19:39:00,21.7,15.6,29.93,NW,304,6.0,9.0,77,0.00,SCT,SKC,0.00,WeatherDisplay:10.37,2013-03-17 00:39:00,
2013-03-16 19:44:00,21.6,15.5,29.93,WNW,303,5.9,9.2,77,0.00,CLR,SKC,0.00,WeatherDisplay:10.37,2013-03-17 00:44:00,
2013-03-16 19:49:00,21.5,15.4,29.93,WNW,299,7.1,9.2,77,0.00,CLR,SKC,0.00,WeatherDisplay:10.37,2013-03-17 00:49:00,
2013-03-16 19:54:00,21.3,15.2,29.93,NW,306,6.4,8.1,77,0.00,CLR,SKC,0.00,WeatherDisplay:10.37,2013-03-17 00:54:00,
2013-03-16 19:59:00,21.2,15.1,29.94,NW,304,6.3,8.1,77,0.00,CLR,SKC,0.00,WeatherDisplay:10.37,2013-03-17 00:59:00,
2013-03-16 20:04:00,21.1,15.0,29.94,WNW,296,6.0,9.2,77,0.00,CLR,SKC,0.00,WeatherDisplay:10.37,2013-03-17 01:04:00,
2013-03-16 20:10:00,20.9,14.8,29.94,WNW,291,6.7,9.2,77,0.00,CLR,SKC,0.00,WeatherDisplay:10.37,2013-03-17 01:10:00,
2013-03-16 20:15:00,20.8,14.4,29.94,NW,311,7.1,10.4,76,0.00,CLR,SKC,0.00,WeatherDisplay:10.37,2013-03-17 01:15:00,
2013-03-16 20:20:00,20.7,14.6,29.94,WNW,297,6.8,9.2,77,0.00,CLR,SKC,0.00,WeatherDisplay:10.37,2013-03-17 01:20:00,
2013-03-16 20:25:00,20.5,14.4,29.95,WNW,298,6.7,9.2,77,0.00,CLR,SKC,0.00,WeatherDisplay:10.37,2013-03-17 01:25:00,
2013-03-16 20:31:00,20.4,14.3,29.95,WNW,299,5.9,7.0,77,0.00,CLR,SKC,0.00,WeatherDisplay:10.37,2013-03-17 01:31:00,
2013-03-16 20:36:00,20.4,14.3,29.95,WNW,301,7.0,10.0,77,0.00,CLR,SKC,0.00,WeatherDisplay:10.37,2013-03-17 01:36:00,
2013-03-16 20:41:00,20.2,14.1,29.96,NW,304,7.1,8.1,77,0.00,CLR,SKC,0.00,WeatherDisplay:10.37,2013-03-17 01:41:00,
2013-03-16 20:47:00,20.2,14.1,29.96,WNW,300,7.4,10.4,77,0.00,CLR,SKC,0.00,WeatherDisplay:10.37,2013-03-17 01:47:00,
2013-03-16 20:52:00,20.0,13.9,29.96,WNW,293,7.6,10.4,77,0.00,CLR,SKC,0.00,WeatherDisplay:10.37,2013-03-17 01:52:00,
2013-03-16 20:57:00,19.9,13.9,29.96,WNW,296,8.2,10.4,77,0.00,CLR,SKC,0.00,WeatherDisplay:10.37,2013-03-17 01:57:00,
2013-03-16 21:02:00,19.8,13.8,29.96,WNW,302,7.8,9.2,77,0.00,CLR,SKC,0.00,WeatherDisplay:10.37,2013-03-17 02:02:00,
2013-03-16 21:07:00,19.7,13.7,29.97,WNW,301,7.6,9.2,77,0.00,CLR,SKC,0.00,WeatherDisplay:10.37,2013-03-17 02:07:00,
2013-03-16 21:12:00,19.6,13.6,29.97,WNW,301,7.5,10.0,77,0.00,CLR,SKC,0.00,WeatherDisplay:10.37,2013-03-17 02:12:00,
2013-03-16 21:17:00,19.4,13.4,29.97,WNW,302,7.2,9.2,77,0.00,CLR,SKC,0.00,WeatherDisplay:10.37,2013-03-17 02:17:00,
2013-03-16 21:22:00,19.3,13.3,29.98,WNW,298,5.4,6.9,77,0.00,CLR,SKC,0.00,WeatherDisplay:10.37,2013-03-17 02:22:00,
2013-03-16 21:27:00,19.3,13.3,29.98,WNW,295,6.4,9.2,77,0.00,CLR,SKC,0.00,WeatherDisplay:10.37,2013-03-17 02:27:00,
2013-03-16 21:32:00,19.2,13.2,29.98,WNW,300,4.9,8.0,77,0.00,CLR,SKC,0.00,WeatherDisplay:10.37,2013-03-17 02:32:00,
2013-03-16 21:37:00,19.1,13.1,29.98,WNW,294,5.7,8.1,77,0.00,CLR,SKC,0.00,WeatherDisplay:10.37,2013-03-17 02:37:00,
2013-03-16 21:42:00,18.9,12.9,29.98,WNW,294,6.9,9.0,77,0.00,CLR,SKC,0.00,WeatherDisplay:10.37,2013-03-17 02:42:00,
2013-03-16 21:47:00,18.7,13.0,29.98,WNW,295,7.8,10.4,78,0.00,CLR,SKC,0.00,WeatherDisplay:10.37,2013-03-17 02:47:00,
2013-03-16 21:52:00,18.6,12.6,29.99,WNW,292,8.1,10.4,77,0.00,CLR,SKC,0.00,WeatherDisplay:10.37,2013-03-17 02:52:00,
2013-03-16 21:57:00,18.5,12.5,29.99,WNW,297,7.0,9.2,77,0.00,CLR,SKC,0.00,WeatherDisplay:10.37,2013-03-17 02:57:00,
2013-03-16 22:02:00,18.3,12.6,29.99,NW,304,7.5,11.5,78,0.00,CLR,SKC,0.00,WeatherDisplay:10.37,2013-03-17 03:02:00,
2013-03-16 22:07:00,18.2,12.5,29.99,WNW,293,4.9,11.5,78,0.00,CLR,SKC,0.00,WeatherDisplay:10.37,2013-03-17 03:07:00,
2013-03-16 22:12:00,18.2,12.5,29.99,WNW,292,3.8,8.1,78,0.00,CLR,SKC,0.00,WeatherDisplay:10.37,2013-03-17 03:12:00,
2013-03-16 22:17:00,18.1,12.1,29.99,WNW,292,6.1,9.2,77,0.00,CLR,SKC,0.00,WeatherDisplay:10.37,2013-03-17 03:17:00,
2013-03-16 22:22:00,18.1,12.1,30.00,West,281,5.1,7.0,77,0.00,SCT,SKC,0.00,WeatherDisplay:10.37,2013-03-17 03:22:00,
2013-03-16 22:27:00,18.0,12.0,30.00,NW,309,7.2,9.2,77,0.00,SCT,SKC,0.00,WeatherDisplay:10.37,2013-03-17 03:27:00,
2013-03-16 22:32:00,17.8,11.8,30.00,NW,306,6.4,8.1,77,0.00,SCT,SKC,0.00,WeatherDisplay:10.37,2013-03-17 03:32:00,
2013-03-16 22:37:00,17.7,11.7,30.00,WNW,298,5.8,8.1,77,0.00,SCT,SKC,0.00,WeatherDisplay:10.37,2013-03-17 03:37:00,
2013-03-16 22:42:00,17.6,11.6,30.00,WNW,300,5.2,8.1,77,0.00,CLR,SKC,0.00,WeatherDisplay:10.37,2013-03-17 03:42:00,
2013-03-16 22:47:00,17.5,11.5,30.00,NW,305,6.8,9.0,77,0.00,CLR,SKC,0.00,WeatherDisplay:10.37,2013-03-17 03:47:00,
2013-03-16 22:52:00,17.3,11.3,30.01,WNW,292,6.1,9.2,77,0.00,CLR,SKC,0.00,WeatherDisplay:10.37,2013-03-17 03:52:00,
2013-03-16 22:57:00,17.3,11.3,30.01,NW,306,4.6,8.1,77,0.00,CLR,SKC,0.00,WeatherDisplay:10.37,2013-03-17 03:57:00,
2013-03-16 23:00:00,17.2,11.2,30.01,NW,305,4.8,6.9,77,0.00,CLR,SKC,0.00,WeatherDisplay:10.37,2013-03-17 04:00:00,
2013-03-16 23:01:00,17.2,11.2,30.01,NW,304,4.5,7.0,77,0.00,CLR,SKC,0.00,WeatherDisplay:10.37,2013-03-17 04:01:00,
2013-03-16 23:02:00,17.2,11.2,30.01,NW,304,6.2,8.1,77,0.00,CLR,SKC,0.00,WeatherDisplay:10.37,2013-03-17 04:02:00,
2013-03-16 23:07:00,17.1,11.1,30.01,NW,306,5.2,6.0,77,0.00,CLR,SKC,0.00,WeatherDisplay:10.37,2013-03-17 04:07:00,
2013-03-16 23:09:00,17.0,11.0,30.01,WNW,301,6.2,8.0,77,0.00,CLR,SKC,0.00,WeatherDisplay:10.37,2013-03-17 04:09:00,
2013-03-16 23:14:00,16.9,10.9,30.01,WNW,300,6.4,9.2,77,0.00,CLR,SKC,0.00,WeatherDisplay:10.37,2013-03-17 04:14:00,
2013-03-16 23:19:00,16.9,10.9,30.02,NW,306,4.3,6.9,77,0.00,CLR,SKC,0.00,WeatherDisplay:10.37,2013-03-17 04:19:00,
2013-03-16 23:25:00,16.8,10.8,30.02,WNW,294,4.2,6.9,77,0.00,CLR,SKC,0.00,WeatherDisplay:10.37,2013-03-17 04:25:00,
2013-03-16 23:29:00,16.7,10.7,30.02,NW,304,4.5,8.1,77,0.00,CLR,SKC,0.00,WeatherDisplay:10.37,2013-03-17 04:29:00,
2013-03-16 23:35:00,16.6,10.9,30.03,WNW,302,4.2,8.1,78,0.00,CLR,SKC,0.00,WeatherDisplay:10.37,2013-03-17 04:35:00,
2013-03-16 23:40:00,16.5,10.5,30.03,WNW,302,5.6,8.1,77,0.00,CLR,SKC,0.00,WeatherDisplay:10.37,2013-03-17 04:40:00,
2013-03-16 23:45:00,16.5,10.5,30.03,WNW,302,4.7,6.9,77,0.00,CLR,SKC,0.00,WeatherDisplay:10.37,2013-03-17 04:45:00,
2013-03-16 23:50:00,16.4,10.4,30.02,WNW,302,5.5,8.1,77,0.00,CLR,SKC,0.00,WeatherDisplay:10.37,2013-03-17 04:50:00,
2013-03-16 23:55:00,16.4,10.4,30.02,NW,304,5.2,8.1,77,0.00,CLR,SKC,0.00,WeatherDisplay:10.37,2013-03-17 04:55:00,